This is the latest recevied weather packets stored in our database for station/object KO6LQJ. If no packets are shown the sender has not sent any weather packets the latest 10 day(s).
| Time | Temp. | Humidity | Pressure | Rain* | Wind** | Luminosity | Snow |
|---|---|---|---|---|---|---|---|
| 1777564386 | 17.22° C | 64% | 1015.3 hPa | 0 mm | - | 157 W/m² | - |
| 1777564082 | 17.22° C | 64% | 1015.2 hPa | 0 mm | - | 126 W/m² | - |
| 1777563778 | 16.67° C | 66% | 1015.4 hPa | 0 mm | - | 157 W/m² | - |
| 1777563475 | 17.78° C | 64% | 1015.3 hPa | 0 mm | - | 183 W/m² | - |
| 1777563174 | 17.22° C | 65% | 1015.2 hPa | 0 mm | - | 260 W/m² | - |
| 1777562871 | 16.11° C | 69% | 1015.5 hPa | 0 mm | - | 266 W/m² | - |
| 1777562567 | 15.56° C | 69% | 1015.6 hPa | 0 mm | - | 130 W/m² | - |
| 1777562266 | 15° C | 70% | 1015.3 hPa | 0 mm | - | 111 W/m² | - |
| 1777561963 | 15° C | 71% | 1015.7 hPa | 0 mm | - | 98 W/m² | - |
| 1777561660 | 15° C | 71% | 1015.6 hPa | 0 mm | - | 86 W/m² | - |
| 1777561356 | 15° C | 71% | 1015.4 hPa | 0 mm | - | 58 W/m² | - |
| 1777561051 | 15° C | 71% | 1015.5 hPa | 0 mm | - | 66 W/m² | - |
| 1777560746 | 15.56° C | 70% | 1015.5 hPa | 0 mm | - | 86 W/m² | - |
| 1777560443 | 15° C | 71% | 1015.4 hPa | 0 mm | - | 151 W/m² | - |
| 1777560141 | 15° C | 71% | 1015.2 hPa | 0 mm | - | 63 W/m² | - |
| 1777559838 | 14.44° C | 72% | 1015.4 hPa | 0 mm | - | 97 W/m² | - |
| 1777559534 | 15° C | 72% | 1015.3 hPa | 0 mm | - | 64 W/m² | - |
| 1777559232 | 15° C | 72% | 1015.5 hPa | 0 mm | - | 74 W/m² | - |
| 1777558931 | 14.44° C | 72% | 1015.5 hPa | 0 mm | - | 58 W/m² | - |
| 1777558628 | 14.44° C | 73% | 1015.4 hPa | 0 mm | - | 55 W/m² | - |
| 1777558323 | 14.44° C | 73% | 1015.4 hPa | 0 mm | - | 48 W/m² | - |
| 1777558021 | 14.44° C | 74% | 1015.3 hPa | 0 mm | - | 46 W/m² | - |
| 1777557717 | 14.44° C | 74% | 1015.4 hPa | 0 mm | - | 33 W/m² | - |
| 1777557413 | 14.44° C | 74% | 1015.3 hPa | 0 mm | - | 27 W/m² | - |
| 1777557109 | 13.89° C | 75% | 1015.2 hPa | 0 mm | - | 27 W/m² | - |
* Rain latest hour (hover to see other rain measurements)
** Current wind speed in m/s (hover to see current wind gust speed)